sensor_id;sensor_type;location;lat;lon;timestamp;pressure;altitude;pressure_sealevel;temperature;humidity
67397;BME280;57728;50.448;18.824;2023-01-31T00:00:49;97013.44;;;1.97;77.84
67397;BME280;57728;50.448;18.824;2023-01-31T00:02:51;96918.88;;;1.33;77.96
67397;BME280;57728;50.448;18.824;2023-01-31T00:04:53;97109.47;;;2.57;78.08
67397;BME280;57728;50.448;18.824;2023-01-31T00:06:55;96905.00;;;1.23;78.02
67397;BME280;57728;50.448;18.824;2023-01-31T00:08:59;96919.97;;;1.46;77.91
67397;BME280;57728;50.448;18.824;2023-01-31T00:11:02;97080.50;;;2.39;78.15
67397;BME280;57728;50.448;18.824;2023-01-31T00:13:04;97026.03;;;2.03;77.87
67397;BME280;57728;50.448;18.824;2023-01-31T00:15:06;96825.22;;;0.83;77.99
67397;BME280;57728;50.448;18.824;2023-01-31T00:17:08;97109.91;;;2.61;78.16
67397;BME280;57728;50.448;18.824;2023-01-31T00:19:10;97109.91;;;2.61;78.28
67397;BME280;57728;50.448;18.824;2023-01-31T00:21:14;97111.13;;;2.58;78.20
67397;BME280;57728;50.448;18.824;2023-01-31T00:23:17;97066.66;;;2.35;78.32
67397;BME280;57728;50.448;18.824;2023-01-31T00:25:20;97014.25;;;1.98;78.13
67397;BME280;57728;50.448;18.824;2023-01-31T00:27:21;96903.75;;;1.19;78.26
67397;BME280;57728;50.448;18.824;2023-01-31T00:29:23;96974.75;;;1.71;78.10
67397;BME280;57728;50.448;18.824;2023-01-31T00:31:27;96909.97;;;1.33;78.27
67397;BME280;57728;50.448;18.824;2023-01-31T00:33:30;96980.09;;;1.71;78.14
67397;BME280;57728;50.448;18.824;2023-01-31T00:35:32;97009.91;;;1.90;78.14
67397;BME280;57728;50.448;18.824;2023-01-31T00:37:34;97081.75;;;2.50;78.21
67397;BME280;57728;50.448;18.824;2023-01-31T00:39:36;97114.47;;;2.67;77.97
67397;BME280;57728;50.448;18.824;2023-01-31T00:41:38;96946.00;;;1.65;77.87
67397;BME280;57728;50.448;18.824;2023-01-31T00:43:40;96997.75;;;1.94;77.95
67397;BME280;57728;50.448;18.824;2023-01-31T00:45:43;96999.41;;;1.95;77.88
67397;BME280;57728;50.448;18.824;2023-01-31T00:47:45;97014.66;;;1.95;77.58
67397;BME280;57728;50.448;18.824;2023-01-31T00:49:47;97065.22;;;2.39;77.47
67397;BME280;57728;50.448;18.824;2023-01-31T00:51:48;96969.19;;;1.86;77.30
67397;BME280;57728;50.448;18.824;2023-01-31T00:53:50;97051.13;;;2.37;77.22
67397;BME280;57728;50.448;18.824;2023-01-31T00:56:05;97005.63;;;2.02;76.99
67397;BME280;57728;50.448;18.824;2023-01-31T00:58:10;97088.00;;;2.50;76.62
67397;BME280;57728;50.448;18.824;2023-01-31T01:00:12;97150.13;;;2.96;76.77
67397;BME280;57728;50.448;18.824;2023-01-31T01:02:15;97140.59;;;2.93;76.40
67397;BME280;57728;50.448;18.824;2023-01-31T01:04:17;97019.25;;;2.08;76.22
67397;BME280;57728;50.448;18.824;2023-01-31T01:06:21;96961.72;;;1.75;76.05
67397;BME280;57728;50.448;18.824;2023-01-31T01:08:27;96935.69;;;1.56;75.83
67397;BME280;57728;50.448;18.824;2023-01-31T01:10:30;96994.16;;;1.80;75.82
67397;BME280;57728;50.448;18.824;2023-01-31T01:12:32;96973.88;;;1.64;75.70
67397;BME280;57728;50.448;18.824;2023-01-31T01:14:34;97146.09;;;2.71;75.70
67397;BME280;57728;50.448;18.824;2023-01-31T01:16:38;96979.25;;;1.64;75.20
67397;BME280;57728;50.448;18.824;2023-01-31T01:18:40;97108.44;;;2.45;75.40
67397;BME280;57728;50.448;18.824;2023-01-31T01:20:45;97048.03;;;2.27;75.28
67397;BME280;57728;50.448;18.824;2023-01-31T01:22:46;97179.66;;;2.89;75.20
67397;BME280;57728;50.448;18.824;2023-01-31T01:24:48;97184.66;;;2.99;75.28
67397;BME280;57728;50.448;18.824;2023-01-31T01:26:50;97189.81;;;3.00;75.36
67397;BME280;57728;50.448;18.824;2023-01-31T01:28:53;97068.47;;;2.21;75.34
67397;BME280;57728;50.448;18.824;2023-01-31T01:30:56;97165.34;;;2.75;75.26
67397;BME280;57728;50.448;18.824;2023-01-31T01:32:58;97162.50;;;2.83;75.32
67397;BME280;57728;50.448;18.824;2023-01-31T01:34:59;97161.25;;;2.86;75.01
67397;BME280;57728;50.448;18.824;2023-01-31T01:37:01;97222.13;;;3.07;74.53
67397;BME280;57728;50.448;18.824;2023-01-31T01:39:11;97106.34;;;2.47;74.22
67397;BME280;57728;50.448;18.824;2023-01-31T01:41:14;97119.63;;;2.62;73.20
67397;BME280;57728;50.448;18.824;2023-01-31T01:43:15;97195.22;;;3.07;73.07
67397;BME280;57728;50.448;18.824;2023-01-31T01:45:17;97211.97;;;3.09;72.86
67397;BME280;57728;50.448;18.824;2023-01-31T01:52:17;96968.13;;;1.67;72.10
67397;BME280;57728;50.448;18.824;2023-01-31T01:54:28;97163.97;;;2.99;71.85
67397;BME280;57728;50.448;18.824;2023-01-31T01:56:41;97001.03;;;1.96;71.89
67397;BME280;57728;50.448;18.824;2023-01-31T02:01:06;96972.28;;;1.83;71.73
67397;BME280;57728;50.448;18.824;2023-01-31T02:03:09;96944.00;;;1.74;71.61
67397;BME280;57728;50.448;18.824;2023-01-31T02:05:16;96972.91;;;1.79;71.73
67397;BME280;57728;50.448;18.824;2023-01-31T02:07:22;97030.03;;;2.21;71.94
67397;BME280;57728;50.448;18.824;2023-01-31T02:09:34;97022.34;;;2.04;71.96
67397;BME280;57728;50.448;18.824;2023-01-31T02:11:47;97210.97;;;3.17;72.10
67397;BME280;57728;50.448;18.824;2023-01-31T02:13:53;97182.34;;;2.89;72.38
67397;BME280;57728;50.448;18.824;2023-01-31T02:16:01;97085.81;;;2.26;72.45
67397;BME280;57728;50.448;18.824;2023-01-31T02:18:05;97234.53;;;3.15;72.59
67397;BME280;57728;50.448;18.824;2023-01-31T02:22:36;97207.97;;;2.85;72.95
67397;BME280;57728;50.448;18.824;2023-01-31T02:30:59;97218.84;;;2.56;74.12
67397;BME280;57728;50.448;18.824;2023-01-31T02:33:45;97235.56;;;2.52;74.30
67397;BME280;57728;50.448;18.824;2023-01-31T02:36:09;97227.69;;;2.50;74.50
67397;BME280;57728;50.448;18.824;2023-01-31T02:38:40;97229.13;;;2.46;74.60
67397;BME280;57728;50.448;18.824;2023-01-31T02:41:16;97001.16;;;0.98;74.46
67397;BME280;57728;50.448;18.824;2023-01-31T02:43:44;97243.38;;;2.47;74.69
67397;BME280;57728;50.448;18.824;2023-01-31T02:46:17;97102.22;;;1.61;74.83
67397;BME280;57728;50.448;18.824;2023-01-31T02:48:40;97249.56;;;2.47;74.82
67397;BME280;57728;50.448;18.824;2023-01-31T02:51:14;97183.00;;;2.01;75.03
67397;BME280;57728;50.448;18.824;2023-01-31T02:53:33;97257.63;;;2.47;75.29
67397;BME280;57728;50.448;18.824;2023-01-31T02:56:08;97145.06;;;1.76;75.27
67397;BME280;57728;50.448;18.824;2023-01-31T02:58:35;97080.31;;;1.22;75.53
67397;BME280;57728;50.448;18.824;2023-01-31T03:00:46;97256.91;;;2.32;75.79
67397;BME280;57728;50.448;18.824;2023-01-31T03:02:49;97099.47;;;1.19;76.17
67397;BME280;57728;50.448;18.824;2023-01-31T03:04:52;97257.78;;;2.04;76.32
67397;BME280;57728;50.448;18.824;2023-01-31T03:09:20;97271.06;;;2.12;76.31
67397;BME280;57728;50.448;18.824;2023-01-31T03:14:08;97313.31;;;2.32;76.24
67397;BME280;57728;50.448;18.824;2023-01-31T03:16:33;97113.19;;;1.09;76.04
67397;BME280;57728;50.448;18.824;2023-01-31T03:19:14;97282.44;;;2.14;75.90
67397;BME280;57728;50.448;18.824;2023-01-31T03:21:40;97241.97;;;1.87;75.73
67397;BME280;57728;50.448;18.824;2023-01-31T03:23:58;97295.25;;;2.19;75.69
67397;BME280;57728;50.448;18.824;2023-01-31T03:26:03;97100.13;;;0.99;75.18
67397;BME280;57728;50.448;18.824;2023-01-31T03:28:17;97291.56;;;2.20;75.43
67397;BME280;57728;50.448;18.824;2023-01-31T03:30:39;97282.81;;;2.11;75.08
67397;BME280;57728;50.448;18.824;2023-01-31T03:32:55;97298.41;;;2.22;75.13
67397;BME280;57728;50.448;18.824;2023-01-31T03:35:02;97307.53;;;2.28;75.32
67397;BME280;57728;50.448;18.824;2023-01-31T03:47:26;97257.22;;;1.59;74.52
67397;BME280;57728;50.448;18.824;2023-01-31T03:49:38;97190.03;;;1.24;74.59
67397;BME280;57728;50.448;18.824;2023-01-31T03:51:47;97298.66;;;1.78;74.84
67397;BME280;57728;50.448;18.824;2023-01-31T03:54:04;97378.78;;;2.24;75.02
67397;BME280;57728;50.448;18.824;2023-01-31T03:56:17;97052.19;;;0.25;74.56
67397;BME280;57728;50.448;18.824;2023-01-31T03:58:30;97381.47;;;2.24;75.01
67397;BME280;57728;50.448;18.824;2023-01-31T04:00:42;97384.16;;;2.24;74.97
67397;BME280;57728;50.448;18.824;2023-01-31T04:02:52;97379.56;;;2.18;75.10
67397;BME280;57728;50.448;18.824;2023-01-31T04:05:15;97342.16;;;1.95;75.13
67397;BME280;57728;50.448;18.824;2023-01-31T04:07:25;97214.22;;;1.09;75.23
67397;BME280;57728;50.448;18.824;2023-01-31T04:09:27;97388.31;;;2.27;75.46
67397;BME280;57728;50.448;18.824;2023-01-31T04:11:36;97139.91;;;0.59;75.15
67397;BME280;57728;50.448;18.824;2023-01-31T04:13:41;97261.47;;;1.31;75.41
67397;BME280;57728;50.448;18.824;2023-01-31T04:15:42;97310.59;;;1.75;75.33
67397;BME280;57728;50.448;18.824;2023-01-31T04:17:44;97313.28;;;1.75;75.42
67397;BME280;57728;50.448;18.824;2023-01-31T04:19:46;97257.78;;;1.32;75.50
67397;BME280;57728;50.448;18.824;2023-01-31T04:21:48;97346.34;;;1.76;75.45
67397;BME280;57728;50.448;18.824;2023-01-31T04:23:49;97366.13;;;1.96;75.59
67397;BME280;57728;50.448;18.824;2023-01-31T04:25:52;97417.72;;;2.13;75.71
67397;BME280;57728;50.448;18.824;2023-01-31T04:27:57;97299.69;;;1.55;75.91
67397;BME280;57728;50.448;18.824;2023-01-31T04:29:58;97340.69;;;1.70;76.07
67397;BME280;57728;50.448;18.824;2023-01-31T04:32:00;97384.16;;;2.02;76.01
67397;BME280;57728;50.448;18.824;2023-01-31T04:34:02;97404.41;;;2.05;75.94
67397;BME280;57728;50.448;18.824;2023-01-31T04:36:04;97427.72;;;2.19;76.01
67397;BME280;57728;50.448;18.824;2023-01-31T04:38:08;97356.03;;;1.77;76.03
67397;BME280;57728;50.448;18.824;2023-01-31T04:40:10;97398.50;;;2.10;75.92
67397;BME280;57728;50.448;18.824;2023-01-31T04:42:14;97246.97;;;1.04;75.77
67397;BME280;57728;50.448;18.824;2023-01-31T04:44:17;97410.53;;;2.20;75.75
67397;BME280;57728;50.448;18.824;2023-01-31T04:46:18;97194.53;;;0.80;75.76
67397;BME280;57728;50.448;18.824;2023-01-31T04:48:20;97434.53;;;2.22;75.81
67397;BME280;57728;50.448;18.824;2023-01-31T04:50:24;97343.97;;;1.66;76.04
67397;BME280;57728;50.448;18.824;2023-01-31T04:52:25;97421.28;;;2.20;75.95
67397;BME280;57728;50.448;18.824;2023-01-31T04:54:26;97282.94;;;1.31;75.93
67397;BME280;57728;50.448;18.824;2023-01-31T04:56:44;97390.06;;;1.91;76.03
67397;BME280;57728;50.448;18.824;2023-01-31T04:58:46;97211.91;;;0.84;75.91
67397;BME280;57728;50.448;18.824;2023-01-31T05:00:49;97444.63;;;2.20;75.77
67397;BME280;57728;50.448;18.824;2023-01-31T05:02:53;97445.47;;;2.20;75.92
67397;BME280;57728;50.448;18.824;2023-01-31T05:04:56;97378.78;;;1.81;75.93
67397;BME280;57728;50.448;18.824;2023-01-31T05:06:57;97361.72;;;1.67;75.94
67397;BME280;57728;50.448;18.824;2023-01-31T05:08:58;97427.19;;;2.09;75.91
67397;BME280;57728;50.448;18.824;2023-01-31T05:11:03;97321.00;;;1.42;75.76
67397;BME280;57728;50.448;18.824;2023-01-31T05:13:11;97412.22;;;2.00;75.78
67397;BME280;57728;50.448;18.824;2023-01-31T05:15:12;97425.66;;;2.00;75.95
67397;BME280;57728;50.448;18.824;2023-01-31T05:17:15;97277.28;;;1.05;75.68
67397;BME280;57728;50.448;18.824;2023-01-31T05:19:16;97461.22;;;2.23;75.88
67397;BME280;57728;50.448;18.824;2023-01-31T05:21:18;97439.50;;;2.03;75.63
67397;BME280;57728;50.448;18.824;2023-01-31T05:23:20;97410.69;;;1.91;75.62
67397;BME280;57728;50.448;18.824;2023-01-31T05:25:21;97381.16;;;1.69;75.51
67397;BME280;57728;50.448;18.824;2023-01-31T05:27:23;97440.56;;;2.02;75.20
67397;BME280;57728;50.448;18.824;2023-01-31T05:29:28;97390.66;;;1.71;75.11
67397;BME280;57728;50.448;18.824;2023-01-31T05:31:39;97405.38;;;1.76;74.77
67397;BME280;57728;50.448;18.824;2023-01-31T05:33:41;97306.34;;;1.23;74.72
67397;BME280;57728;50.448;18.824;2023-01-31T05:35:43;97342.59;;;1.33;74.45
67397;BME280;57728;50.448;18.824;2023-01-31T05:37:45;97417.59;;;1.78;74.38
67397;BME280;57728;50.448;18.824;2023-01-31T05:39:47;97344.75;;;1.23;74.13
67397;BME280;57728;50.448;18.824;2023-01-31T05:41:49;97395.56;;;1.68;74.18
67397;BME280;57728;50.448;18.824;2023-01-31T05:43:50;97451.13;;;1.89;74.08
67397;BME280;57728;50.448;18.824;2023-01-31T05:45:52;97438.72;;;1.88;73.84
67397;BME280;57728;50.448;18.824;2023-01-31T05:47:56;97451.41;;;1.94;73.92
67397;BME280;57728;50.448;18.824;2023-01-31T05:49:57;97397.47;;;1.52;73.95
67397;BME280;57728;50.448;18.824;2023-01-31T05:51:59;97411.69;;;1.68;73.96
67397;BME280;57728;50.448;18.824;2023-01-31T05:54:02;97339.59;;;1.07;74.00
67397;BME280;57728;50.448;18.824;2023-01-31T05:56:04;97506.28;;;2.06;74.04
67397;BME280;57728;50.448;18.824;2023-01-31T05:58:05;97432.16;;;1.54;74.04
67397;BME280;57728;50.448;18.824;2023-01-31T06:00:08;97370.56;;;1.09;74.18
67397;BME280;57728;50.448;18.824;2023-01-31T06:02:14;97442.97;;;1.61;74.33
67397;BME280;57728;50.448;18.824;2023-01-31T06:04:15;97488.53;;;1.91;74.36
67397;BME280;57728;50.448;18.824;2023-01-31T06:06:18;97535.16;;;2.04;74.41
67397;BME280;57728;50.448;18.824;2023-01-31T06:08:21;97476.78;;;1.77;74.49
67397;BME280;57728;50.448;18.824;2023-01-31T06:10:22;97539.31;;;2.07;74.51
67397;BME280;57728;50.448;18.824;2023-01-31T06:12:25;97470.66;;;1.61;74.45
67397;BME280;57728;50.448;18.824;2023-01-31T06:14:26;97484.78;;;1.70;74.04
67397;BME280;57728;50.448;18.824;2023-01-31T06:16:27;97468.69;;;1.55;73.99
67397;BME280;57728;50.448;18.824;2023-01-31T06:18:30;97492.66;;;1.71;74.00
67397;BME280;57728;50.448;18.824;2023-01-31T06:20:31;97513.16;;;1.79;74.19
67397;BME280;57728;50.448;18.824;2023-01-31T06:22:33;97448.09;;;1.41;74.01
67397;BME280;57728;50.448;18.824;2023-01-31T06:24:35;97513.34;;;1.78;73.84
67397;BME280;57728;50.448;18.824;2023-01-31T06:26:36;97566.75;;;2.02;73.58
67397;BME280;57728;50.448;18.824;2023-01-31T06:28:38;97568.03;;;2.06;73.80
67397;BME280;57728;50.448;18.824;2023-01-31T06:30:41;97494.97;;;1.60;73.64
67397;BME280;57728;50.448;18.824;2023-01-31T06:32:42;97497.84;;;1.58;73.39
67397;BME280;57728;50.448;18.824;2023-01-31T06:34:44;97381.38;;;0.86;73.32
67397;BME280;57728;50.448;18.824;2023-01-31T06:36:46;97526.88;;;1.69;73.20
67397;BME280;57728;50.448;18.824;2023-01-31T06:38:49;97526.34;;;1.74;73.05
67397;BME280;57728;50.448;18.824;2023-01-31T06:40:51;97598.50;;;2.14;73.23
67397;BME280;57728;50.448;18.824;2023-01-31T06:42:54;97521.50;;;1.69;73.00
67397;BME280;57728;50.448;18.824;2023-01-31T06:44:55;97535.84;;;1.77;72.82
67397;BME280;57728;50.448;18.824;2023-01-31T06:46:56;97445.16;;;1.06;72.80
67397;BME280;57728;50.448;18.824;2023-01-31T06:48:58;97602.47;;;2.18;72.63
67397;BME280;57728;50.448;18.824;2023-01-31T06:51:01;97556.50;;;1.76;72.60
67397;BME280;57728;50.448;18.824;2023-01-31T06:53:03;97609.78;;;2.24;72.56
67397;BME280;57728;50.448;18.824;2023-01-31T06:55:06;97543.75;;;1.78;72.36
67397;BME280;57728;50.448;18.824;2023-01-31T06:57:08;97518.09;;;1.61;72.37
67397;BME280;57728;50.448;18.824;2023-01-31T06:59:09;97457.91;;;1.18;72.21
67397;BME280;57728;50.448;18.824;2023-01-31T07:01:13;97518.66;;;1.56;72.21
67397;BME280;57728;50.448;18.824;2023-01-31T07:03:15;97628.38;;;2.26;72.09
67397;BME280;57728;50.448;18.824;2023-01-31T07:05:19;97438.03;;;1.13;72.06
67397;BME280;57728;50.448;18.824;2023-01-31T07:07:21;97575.16;;;1.99;71.97
67397;BME280;57728;50.448;18.824;2023-01-31T07:09:23;97561.84;;;1.91;72.00
67397;BME280;57728;50.448;18.824;2023-01-31T07:11:24;97627.47;;;2.33;71.72
67397;BME280;57728;50.448;18.824;2023-01-31T07:13:27;97632.25;;;2.38;71.92
67397;BME280;57728;50.448;18.824;2023-01-31T07:15:29;97633.06;;;2.38;72.04
67397;BME280;57728;50.448;18.824;2023-01-31T07:17:31;97496.47;;;1.47;71.72
67397;BME280;57728;50.448;18.824;2023-01-31T07:19:34;97561.47;;;1.94;72.01
67397;BME280;57728;50.448;18.824;2023-01-31T07:21:35;97645.13;;;2.43;71.77
67397;BME280;57728;50.448;18.824;2023-01-31T07:23:37;97614.47;;;2.22;71.71
67397;BME280;57728;50.448;18.824;2023-01-31T07:25:39;97424.81;;;0.96;71.40
67397;BME280;57728;50.448;18.824;2023-01-31T07:27:40;97652.53;;;2.40;71.85
67397;BME280;57728;50.448;18.824;2023-01-31T07:29:42;97650.50;;;2.43;71.77
67397;BME280;57728;50.448;18.824;2023-01-31T07:31:45;97655.88;;;2.43;71.66
67397;BME280;57728;50.448;18.824;2023-01-31T07:33:47;97635.88;;;2.30;71.66
67397;BME280;57728;50.448;18.824;2023-01-31T07:35:48;97480.94;;;1.28;71.47
67397;BME280;57728;50.448;18.824;2023-01-31T07:37:51;97621.53;;;2.23;71.54
67397;BME280;57728;50.448;18.824;2023-01-31T07:39:53;97652.34;;;2.42;71.43
67397;BME280;57728;50.448;18.824;2023-01-31T07:41:54;97573.03;;;1.95;71.48
67397;BME280;57728;50.448;18.824;2023-01-31T07:43:59;97677.53;;;2.56;71.53
67397;BME280;57728;50.448;18.824;2023-01-31T07:46:00;97612.16;;;2.19;71.32
67397;BME280;57728;50.448;18.824;2023-01-31T07:48:02;97560.56;;;1.87;71.37
67397;BME280;57728;50.448;18.824;2023-01-31T07:50:05;97678.81;;;2.60;71.19
67397;BME280;57728;50.448;18.824;2023-01-31T07:52:07;97675.09;;;2.61;71.25
67397;BME280;57728;50.448;18.824;2023-01-31T07:54:10;97599.13;;;2.16;71.14
67397;BME280;57728;50.448;18.824;2023-01-31T07:56:15;97500.72;;;1.57;71.10
67397;BME280;57728;50.448;18.824;2023-01-31T07:58:18;97671.41;;;2.62;71.11
67397;BME280;57728;50.448;18.824;2023-01-31T08:00:20;97686.56;;;2.70;70.92
67397;BME280;57728;50.448;18.824;2023-01-31T08:02:41;97662.34;;;2.48;71.00
67397;BME280;57728;50.448;18.824;2023-01-31T08:05:02;97542.78;;;1.86;70.52
67397;BME280;57728;50.448;18.824;2023-01-31T08:07:04;97464.94;;;1.34;70.63
67397;BME280;57728;50.448;18.824;2023-01-31T08:09:08;97647.03;;;2.49;70.71
67397;BME280;57728;50.448;18.824;2023-01-31T08:11:10;97629.66;;;2.30;70.67
67397;BME280;57728;50.448;18.824;2023-01-31T08:13:12;97633.97;;;2.46;70.56
67397;BME280;57728;50.448;18.824;2023-01-31T08:15:14;97603.81;;;2.29;70.35
67397;BME280;57728;50.448;18.824;2023-01-31T08:17:15;97511.44;;;1.71;70.32
67397;BME280;57728;50.448;18.824;2023-01-31T08:19:17;97622.31;;;2.38;70.29
67397;BME280;57728;50.448;18.824;2023-01-31T08:21:19;97645.09;;;2.57;70.28
67397;BME280;57728;50.448;18.824;2023-01-31T08:23:21;97669.00;;;2.67;70.08
67397;BME280;57728;50.448;18.824;2023-01-31T08:25:22;97474.53;;;1.44;69.79
67397;BME280;57728;50.448;18.824;2023-01-31T08:27:27;97610.69;;;2.31;69.96
67397;BME280;57728;50.448;18.824;2023-01-31T08:29:28;97662.22;;;2.56;69.85
67397;BME280;57728;50.448;18.824;2023-01-31T08:31:30;97658.34;;;2.59;69.90
67397;BME280;57728;50.448;18.824;2023-01-31T08:33:32;97581.63;;;2.20;70.02
67397;BME280;57728;50.448;18.824;2023-01-31T08:35:34;97630.91;;;2.49;69.75
67397;BME280;57728;50.448;18.824;2023-01-31T08:37:35;97713.84;;;3.03;69.59
67397;BME280;57728;50.448;18.824;2023-01-31T08:39:37;97673.28;;;2.83;69.00
67397;BME280;57728;50.448;18.824;2023-01-31T08:41:39;97684.03;;;2.83;68.94
67397;BME280;57728;50.448;18.824;2023-01-31T08:43:40;97667.53;;;2.86;68.78
67397;BME280;57728;50.448;18.824;2023-01-31T08:45:44;97708.50;;;2.88;68.22
67397;BME280;57728;50.448;18.824;2023-01-31T08:47:45;97722.06;;;3.17;68.40
67397;BME280;57728;50.448;18.824;2023-01-31T08:49:46;97620.53;;;2.61;68.34
67397;BME280;57728;50.448;18.824;2023-01-31T08:51:49;97733.75;;;3.31;68.11
67397;BME280;57728;50.448;18.824;2023-01-31T08:53:50;97645.19;;;2.86;67.65
67397;BME280;57728;50.448;18.824;2023-01-31T08:55:57;97698.00;;;3.15;67.86
67397;BME280;57728;50.448;18.824;2023-01-31T08:58:00;97537.75;;;2.13;67.59
67397;BME280;57728;50.448;18.824;2023-01-31T09:00:03;97717.19;;;3.27;67.76
67397;BME280;57728;50.448;18.824;2023-01-31T09:02:05;97592.78;;;2.60;67.12
67397;BME280;57728;50.448;18.824;2023-01-31T09:04:08;97675.16;;;3.04;67.01
67397;BME280;57728;50.448;18.824;2023-01-31T09:06:13;97736.22;;;3.47;66.73
67397;BME280;57728;50.448;18.824;2023-01-31T09:08:17;97690.53;;;3.10;66.23
67397;BME280;57728;50.448;18.824;2023-01-31T09:10:20;97673.50;;;3.03;65.96
67397;BME280;57728;50.448;18.824;2023-01-31T09:12:22;97681.38;;;3.05;65.97
67397;BME280;57728;50.448;18.824;2023-01-31T09:14:23;97751.53;;;3.47;65.18
67397;BME280;57728;50.448;18.824;2023-01-31T09:16:26;97555.53;;;2.14;65.09
67397;BME280;57728;50.448;18.824;2023-01-31T09:18:28;97770.09;;;3.41;65.30
67397;BME280;57728;50.448;18.824;2023-01-31T09:20:30;97686.66;;;2.98;64.85
67397;BME280;57728;50.448;18.824;2023-01-31T09:22:33;97602.63;;;2.31;64.56
67397;BME280;57728;50.448;18.824;2023-01-31T09:24:35;97746.72;;;3.42;64.59
67397;BME280;57728;50.448;18.824;2023-01-31T09:26:36;97732.44;;;3.41;63.99
67397;BME280;57728;50.448;18.824;2023-01-31T09:28:39;97697.97;;;3.08;63.08
67397;BME280;57728;50.448;18.824;2023-01-31T09:30:45;97775.75;;;3.47;63.30
67397;BME280;57728;50.448;18.824;2023-01-31T09:32:46;97675.28;;;2.96;63.05
67397;BME280;57728;50.448;18.824;2023-01-31T09:34:50;97702.13;;;3.11;62.96
67397;BME280;57728;50.448;18.824;2023-01-31T09:36:52;97695.84;;;3.04;63.19
67397;BME280;57728;50.448;18.824;2023-01-31T09:38:55;97751.59;;;3.32;63.29
67397;BME280;57728;50.448;18.824;2023-01-31T09:41:02;97771.59;;;3.44;63.45
67397;BME280;57728;50.448;18.824;2023-01-31T09:43:18;97778.66;;;3.45;63.13
67397;BME280;57728;50.448;18.824;2023-01-31T09:45:33;97702.19;;;2.96;63.04
67397;BME280;57728;50.448;18.824;2023-01-31T09:47:47;97633.56;;;2.42;63.25
67397;BME280;57728;50.448;18.824;2023-01-31T09:49:57;97789.25;;;3.32;63.55
67397;BME280;57728;50.448;18.824;2023-01-31T09:52:03;97758.78;;;3.09;63.47
67397;BME280;57728;50.448;18.824;2023-01-31T09:54:17;97785.38;;;3.19;63.73
67397;BME280;57728;50.448;18.824;2023-01-31T09:56:41;97721.41;;;2.78;63.92
67397;BME280;57728;50.448;18.824;2023-01-31T10:02:30;97792.91;;;3.24;64.25
67397;BME280;57728;50.448;18.824;2023-01-31T10:07:53;97773.91;;;3.10;64.60
67397;BME280;57728;50.448;18.824;2023-01-31T10:10:23;97792.00;;;3.17;64.89
67397;BME280;57728;50.448;18.824;2023-01-31T10:12:56;97790.72;;;3.13;65.23
67397;BME280;57728;50.448;18.824;2023-01-31T10:17:51;97532.09;;;1.56;65.76
67397;BME280;57728;50.448;18.824;2023-01-31T10:20:22;97746.97;;;2.89;66.10
67397;BME280;57728;50.448;18.824;2023-01-31T10:27:47;97761.88;;;3.06;66.56
67397;BME280;57728;50.448;18.824;2023-01-31T10:29:55;97773.19;;;3.17;66.79
67397;BME280;57728;50.448;18.824;2023-01-31T10:32:04;97775.47;;;3.20;66.83
67397;BME280;57728;50.448;18.824;2023-01-31T10:34:21;97700.91;;;2.77;66.77
67397;BME280;57728;50.448;18.824;2023-01-31T10:44:48;97780.75;;;3.50;66.55
67397;BME280;57728;50.448;18.824;2023-01-31T10:47:14;97739.63;;;3.34;65.87
67397;BME280;57728;50.448;18.824;2023-01-31T10:49:22;97732.56;;;3.33;65.56
67397;BME280;57728;50.448;18.824;2023-01-31T10:51:52;97766.78;;;3.61;65.61
67397;BME280;57728;50.448;18.824;2023-01-31T10:54:12;97751.91;;;3.65;64.94
67397;BME280;57728;50.448;18.824;2023-01-31T10:56:32;97706.44;;;3.27;64.75
67397;BME280;57728;50.448;18.824;2023-01-31T10:58:45;97544.84;;;2.20;64.39
67397;BME280;57728;50.448;18.824;2023-01-31T11:00:48;97577.44;;;2.54;64.56
67397;BME280;57728;50.448;18.824;2023-01-31T11:02:51;97563.94;;;2.47;64.38
67397;BME280;57728;50.448;18.824;2023-01-31T11:04:55;97760.50;;;3.75;64.60
67397;BME280;57728;50.448;18.824;2023-01-31T11:07:01;97639.56;;;3.24;64.24
67397;BME280;57728;50.448;18.824;2023-01-31T11:09:04;97658.09;;;3.40;63.09
67397;BME280;57728;50.448;18.824;2023-01-31T11:11:09;97704.75;;;3.76;62.55
67397;BME280;57728;50.448;18.824;2023-01-31T11:13:19;97683.56;;;3.66;62.49
67397;BME280;57728;50.448;18.824;2023-01-31T11:15:25;97708.94;;;3.78;62.22
67397;BME280;57728;50.448;18.824;2023-01-31T11:17:32;97755.03;;;4.19;62.34
67397;BME280;57728;50.448;18.824;2023-01-31T11:19:47;97692.03;;;3.91;61.91
67397;BME280;57728;50.448;18.824;2023-01-31T11:21:52;97752.00;;;4.35;61.56
67397;BME280;57728;50.448;18.824;2023-01-31T11:24:14;97747.50;;;4.42;61.43
67397;BME280;57728;50.448;18.824;2023-01-31T11:26:28;97677.00;;;4.04;60.71
67397;BME280;57728;50.448;18.824;2023-01-31T11:28:37;97707.00;;;4.29;61.12
67397;BME280;57728;50.448;18.824;2023-01-31T11:30:41;97745.50;;;4.51;60.93
67397;BME280;57728;50.448;18.824;2023-01-31T11:32:50;97750.84;;;4.44;60.83
67397;BME280;57728;50.448;18.824;2023-01-31T11:37:18;97697.75;;;4.10;61.04
67397;BME280;57728;50.448;18.824;2023-01-31T11:39:28;97573.81;;;3.33;61.83
67397;BME280;57728;50.448;18.824;2023-01-31T11:41:35;97721.44;;;4.56;61.27
67397;BME280;57728;50.448;18.824;2023-01-31T11:43:37;97538.06;;;3.39;61.11
67397;BME280;57728;50.448;18.824;2023-01-31T11:45:43;97495.38;;;3.36;61.36
67397;BME280;57728;50.448;18.824;2023-01-31T11:48:17;97729.13;;;5.08;61.14
67397;BME280;57728;50.448;18.824;2023-01-31T11:50:32;97724.56;;;5.22;60.77
67397;BME280;57728;50.448;18.824;2023-01-31T11:52:37;97681.81;;;5.12;60.53
67397;BME280;57728;50.448;18.824;2023-01-31T11:54:44;97690.97;;;5.18;60.42
67397;BME280;57728;50.448;18.824;2023-01-31T11:56:51;97713.41;;;5.25;59.96
67397;BME280;57728;50.448;18.824;2023-01-31T11:59:01;97650.16;;;4.79;60.28
67397;BME280;57728;50.448;18.824;2023-01-31T12:01:15;97658.06;;;4.74;59.97
67397;BME280;57728;50.448;18.824;2023-01-31T12:03:18;97718.94;;;4.96;60.08
67397;BME280;57728;50.448;18.824;2023-01-31T12:05:30;97673.75;;;4.57;59.75